• Join FlightAware (Why Join?)
  • Login
  • US Flag 
02:43PM EDT


 

Airport Tracker/Info


-or-


 

Live Flight TrackerFlight Track Log ✈ EJA951 ✈ 20-May-2013 ✈ KSMO - KSFO

Flight Track Log - Related Links

Times and Time Zones

All times are in EDT time to prevent confusion due to time zone crossing. See the EJA951 flight status page for this flight to view local times or setup timezone preferences in your user account.

Time Position Orientation Groundspeed Altitude Reporting Facility
EDT Latitude Longitude Course Direction KTS MPH feet Rate Location/Type
07:26PM 33.9917 -118.4772 259° West 186 214 1,700  Level Los Angeles Center
07:27PM 33.9803 -118.5475 259° West 228 262 4,800 2,520 Climbing Los Angeles Center
07:28PM 33.9556 -118.6194 248° West 238 274 7,000 2,220 Climbing Los Angeles Center
07:29PM 33.9336 -118.7267 256° West 305 351 9,400 2,520 Climbing Los Angeles Center
07:30PM 33.9203 -118.8253 261° West 292 336 12,300 2,460 Climbing Los Angeles Center
07:31PM 33.9225 -118.9256 272° West 297 342 14,600 2,040 Climbing Los Angeles Center
07:32PM 33.9683 -119.0106 303° West 309 356 16,600 1,920 Climbing Los Angeles Center
07:33PM 34.0256 -119.0903 311° West 315 362 18,600 1,920 Climbing Los Angeles Center
07:34PM 34.0844 -119.1733 311° West 326 375 20,600 1,980 Climbing Los Angeles Center
07:36PM 34.2042 -119.3425 311° West 347 399 24,500 1,860 Climbing Oakland Center
07:37PM 34.2883 -119.4603 311° West 369 425 26,400 1,500 Climbing Los Angeles Center
07:38PM 34.3589 -119.5611 310° West 390 449 27,900 1,140 Climbing Los Angeles Center
07:39PM 34.4328 -119.6647 311° West 405 466 29,100 900 Climbing Los Angeles Center
07:40PM 34.5286 -119.7950 312° West 430 495 30,000 420 Climbing Los Angeles Center
07:42PM 34.6411 -119.9144 319° Northwest 467 537 30,000  Level Los Angeles Center
07:43PM 34.7422 -120.0244 318° Northwest 485 558 30,000  Level Los Angeles Center
07:44PM 34.8553 -120.1478 318° Northwest 482 555 30,000 -60 Level Los Angeles Center
07:45PM 34.9528 -120.2561 318° Northwest 480 552 29,900  Descending Los Angeles Center
07:46PM 35.0689 -120.3836 318° Northwest 474 545 30,000  Climbing Los Angeles Center
07:47PM 35.1661 -120.4914 318° Northwest 476 548 29,900 -60 Descending Los Angeles Center
07:48PM 35.2636 -120.6008 318° Northwest 479 551 29,900  Level Los Angeles Center
07:49PM 35.3611 -120.7111 317° Northwest 477 549 30,000  Climbing Los Angeles Center
07:50PM 35.4592 -120.8197 318° Northwest 476 548 30,000 -60 Level Los Angeles Center
07:51PM 35.5581 -120.9267 319° Northwest 474 545 29,900  Descending Los Angeles Center
07:52PM 35.6864 -121.0378 325° Northwest 475 547 30,000 60 Climbing Los Angeles Center
07:52PM 35.7069 -121.0561 324° Northwest 476 548 30,000  Level Oakland Center
07:53PM 35.8150 -121.1528 324° Northwest 475 547 30,000  Level Oakland Center
07:54PM 35.9253 -121.2447 326° Northwest 476 548 30,000  Level Oakland Center
07:55PM 36.0328 -121.3422 324° Northwest 478 550 30,000 -60 Level Oakland Center
07:56PM 36.1417 -121.4372 325° Northwest 479 551 29,900 -960 Descending Oakland Center
07:57PM 36.2717 -121.5511 325° Northwest 478 550 28,100 -2,100 Descending Oakland Center
07:58PM 36.3786 -121.6456 325° Northwest 474 545 25,600 -2,520 Descending Oakland Center
07:59PM 36.4167 -121.6833 321° Northwest 451 519 24,700 -2,280 Descending Northern Cal TRACON
08:00PM 36.5333 -121.7667 330° Northwest 435 501 22,300 -2,280 Descending Northern Cal TRACON
08:01PM 36.6167 -121.8500 321° Northwest 474 545 20,000 -2,220 Descending Northern Cal TRACON
08:02PM 36.7167 -121.9333 326° Northwest 438 504 18,100 -1,980 Descending Northern Cal TRACON
08:03PM 36.8167 -121.9833 338° Northwest 411 473 16,300 -1,860 Descending Northern Cal TRACON
08:04PM 36.9333 -122.0167 347° North 403 464 14,400 -1,860 Descending Northern Cal TRACON
08:05PM 37.0333 -122.0500 345° North 377 434 12,400 -1,800 Descending Northern Cal TRACON
08:06PM 37.1333 -122.0667 352° North 322 371 10,700 -1,500 Descending Northern Cal TRACON
08:07PM 37.1861 -122.0794 349° North 307 353 9,900 -1,380 Descending Oakland Center
08:08PM 37.2628 -122.1003 348° North 284 327 8,400 -1,620 Descending Oakland Center
08:09PM 37.3386 -122.1203 348° North 279 321 6,600 -1,740 Descending Oakland Center
08:10PM 37.4106 -122.1392 348° North 268 308 4,900 -1,380 Descending Oakland Center
08:11PM 37.4817 -122.1614 346° North 264 304 3,900 -1,140 Descending Oakland Center
08:12PM 37.5511 -122.1931 340° North 271 312 2,600 -1,320 Descending Oakland Center
08:13PM 37.5775 -122.2747 292° West 259 298 1,300 -1,140 Descending Oakland Center
08:14PM 37.6042 -122.3386 298° West 202 232 300 -600 Descending Oakland Center
08:15PM 37.6214 -122.3836 296° West 192 221 200 -120 Descending Oakland Center